Detall de PIREP

Printer-friendly versionPDF version

[2010/03/06 18:39:00]
Flight IATA:CT2204
Pilot Number:026
Company ICAO:CAT
Aircraft Type:DC85/A
PAX:136
Departing Airport: LFMP
Destination Airport: LFRB
Alternate Airport:LFOH
Online: VATSIM
Route:ORBIL/N0250F180 G36 GAI/N0300F340 UT186 PERIG UY156 FOUCO UT183 TIRAV UN863 NTS UM616 KORER/N0300F180 ARE
Flight Level:FL340
No Slew and time accel
No pause
Crash detect
Detect pilot in Cockpit between each 30 and 45 minutes
18:39 Zero fuel Weight: 194527 Lbs, Fuel Weight: 33002 Lbs
18:39 VATSIM:LFMP 061830Z AUTO 00000KT 9999NDV NSC 07/M06 Q1014
18:39 VATSIM:LFRB 061800Z 06011KT 9999 FEW016 BKN035 06/03 Q1022 NOSIG
18:39 VOICE CATALONIAN
18:45 Parking Brakes off
18:51 Take-off
18:51 Take off Weight: 226596 Lbs
18:51 Wind: 343º @ 000 Knots Heading: 327º
18:51 POS N42º 45´ 09´´ E002º 51´ 46´´
18:51 Gear Up: 169 Knots
18:51 Flaps:2 at 169 Knots
18:52 Flaps:1 at 173 Knots

18:52 Flaps:0 at 199 Knots
19:06 Wind:335º@011 Knots Heading: 324º Ground Speed: 397 Knots Altitude 18044 ft
19:21 Wind:043º@028 Knots Heading: 332º Ground Speed: 434 Knots Altitude 33710 ft
19:21 TOC
19:21 Fuel Weight: 23558 Lb
19:36 Wind:049º@047 Knots Heading: 332º Ground Speed: 469 Knots Altitude 34225 ft
19:36 TOD
19:36 Fuel Weight: 19963 Lb
19:51 Wind:043º@034 Knots Heading: 312º Ground Speed: 384 Knots Altitude 14501 ft
20:02 Flaps:1 at 197 Knots
20:06 Wind:066º@016 Knots Heading: 254º Ground Speed: 227 Knots Altitude 3083 ft
20:11 Gear Down: 201 Knots
20:11 Flaps:2 at 202 Knots
20:11 Flaps:3 at 162 Knots
20:12 Flaps:4 at 186 Knots
20:13 TouchDown:Rate -758 ft/min Speed: 156 Knots
20:13 VATSIM:LFRB 062000Z 07017KT 9999 FEW016 SCT033 05/01 Q1023 NOSIG
20:13 Land
20:13 Wind:072º@017 Knots
20:13 Heading: 071º
20:13 Flight Duration: 01:22
20:13 Landin
g Weight: 209774 Lbs
20:13 POS N48º 26´ 55´´ W004º 24´ 53´´
20:18 Parking brakes on
20:18 Block to Block Duration: 01:33
20:18 Final Fuel: 14728 Lbls
20:18 Spent Fuel: 18273 Lbls
20:18 Flight Length: 499 NM
20:18 TOD Land Length: 195 NM

Exportar CSV

Powered by Drupal - Modified by Danger4k